Time;durP1;ratioP1;P1;durP2;ratioP2;P2;SDS_P1;SDS_P2;PMS_P1;PMS_P2;Temp;Humidity;BMP_temperature;BMP_pressure;BME280_temperature;BME280_humidity;BME280_pressure;Samples;Min_cycle;Max_cycle;Signal;HPM_P1;HPM_P2
2021/08/26 00:00:33;;;;;;;;;;;13.90;99.90;;;12.71;82.89;95560.88;10405588;28;1731;-79
2021/08/26 00:05:48;;;;;;;;;;;13.90;99.90;;;12.70;83.18;95545.81;10400534;28;2026;-79
2021/08/26 00:10:52;;;;;;;;;;;13.80;99.90;;;12.66;83.03;95534.81;10399718;28;1981;-77
2021/08/26 00:15:57;;;;;;;;;;;13.80;99.90;;;12.60;83.62;95525.19;10396789;28;2018;-79
2021/08/26 00:21:00;;;;;;;;;;;13.70;99.90;;;12.41;85.02;95511.72;10394938;28;2045;-78
2021/08/26 00:26:03;;;;;;;;;;;13.70;99.90;;;12.31;86.02;95498.38;10401792;28;1908;-79
2021/08/26 00:31:06;;;;;;;;;;;13.50;99.90;;;12.23;86.38;95499.03;10398234;28;2163;-79
2021/08/26 00:36:08;;;;;;;;;;;13.50;99.90;;;12.19;88.00;95503.38;10395828;28;1974;-78
2021/08/26 00:41:11;;;;;;;;;;;13.40;99.90;;;12.05;90.37;95492.53;10403397;28;2210;-77
2021/08/26 00:46:15;;;;;;;;;;;13.30;99.90;;;11.98;91.39;95496.66;10391199;28;2198;-78
2021/08/26 00:51:18;;;;;;;;;;;13.20;99.90;;;11.94;92.92;95492.94;10400047;28;2225;-78
2021/08/26 00:56:21;;;;;;;;;;;13.10;99.90;;;11.87;93.98;95485.22;10392765;28;1842;-79
2021/08/26 01:01:24;;;;;;;;;;;13.10;99.90;;;11.83;94.86;95474.22;10395096;28;2079;-79
2021/08/26 01:06:27;;;;;;;;;;;13.00;99.90;;;11.85;95.68;95466.66;10395235;28;2079;-78
2021/08/26 01:11:30;;;;;;;;;;;13.00;99.90;;;11.93;96.67;95457.13;10412156;28;2138;-80
2021/08/26 01:16:33;;;;;;;;;;;13.00;99.90;;;12.11;95.91;95456.34;10400348;28;2187;-79
2021/08/26 01:21:36;;;;;;;;;;;13.10;99.90;;;12.21;95.14;95457.28;10411448;28;2170;-78
2021/08/26 01:26:39;;;;;;;;;;;13.10;99.90;;;12.34;94.81;95460.06;10395943;28;2122;-80
2021/08/26 01:31:42;;;;;;;;;;;13.30;99.90;;;12.50;94.67;95462.53;10396750;28;2099;-78
2021/08/26 01:36:45;;;;;;;;;;;13.40;99.90;;;12.49;94.77;95472.50;10400866;28;2197;-79
2021/08/26 01:41:48;;;;;;;;;;;13.50;99.90;;;12.54;93.46;95455.47;10412170;28;2088;-79
2021/08/26 01:46:50;;;;;;;;;;;13.50;99.90;;;12.58;93.26;95451.88;10415006;28;2004;-79
2021/08/26 01:51:53;;;;;;;;;;;13.60;99.90;;;12.68;94.27;95443.63;10397669;28;2143;-79
2021/08/26 01:56:56;;;;;;;;;;;13.60;99.90;;;12.70;94.11;95448.72;10395893;28;2163;-80
2021/08/26 02:01:59;;;;;;;;;;;13.70;99.90;;;12.74;92.93;95440.84;10404333;28;2542;-79
2021/08/26 02:07:02;;;;;;;;;;;13.70;99.90;;;12.78;92.29;95445.34;10394880;28;2205;-79
2021/08/26 02:12:05;;;;;;;;;;;13.80;99.90;;;12.85;91.22;95444.97;10399289;28;2109;-79
2021/08/26 02:17:08;;;;;;;;;;;13.80;99.90;;;12.87;90.85;95445.47;10394426;28;2047;-78
2021/08/26 02:22:10;;;;;;;;;;;13.90;99.90;;;12.83;90.66;95447.97;10395273;28;2175;-79
2021/08/26 02:27:13;;;;;;;;;;;13.90;99.90;;;12.84;90.51;95444.16;10394948;28;2051;-78
2021/08/26 02:32:16;;;;;;;;;;;13.90;99.90;;;12.87;91.08;95432.00;10406200;28;2580;-79
2021/08/26 02:37:19;;;;;;;;;;;13.90;99.90;;;12.89;91.22;95429.78;10396813;28;2140;-79
2021/08/26 02:42:22;;;;;;;;;;;13.90;99.90;;;12.92;90.97;95424.63;10392328;28;2218;-79
2021/08/26 02:47:25;;;;;;;;;;;13.90;99.90;;;12.96;90.28;95414.81;10390889;28;2186;-78
2021/08/26 02:52:28;;;;;;;;;;;13.90;99.90;;;12.99;89.05;95408.84;10395004;28;2145;-78
2021/08/26 02:57:30;;;;;;;;;;;14.00;99.90;;;13.07;88.47;95403.84;10392533;28;2068;-78
2021/08/26 03:02:33;;;;;;;;;;;14.00;99.90;;;13.05;87.71;95387.97;10390785;28;2158;-79
2021/08/26 03:07:36;;;;;;;;;;;14.10;99.90;;;13.07;86.42;95382.25;10393799;28;2083;-78
2021/08/26 03:12:39;;;;;;;;;;;14.10;99.90;;;13.07;85.90;95382.25;10405313;28;2192;-78
2021/08/26 03:17:42;;;;;;;;;;;14.10;99.90;;;13.09;85.12;95377.34;10390617;28;2119;-79
2021/08/26 03:22:44;;;;;;;;;;;14.10;99.90;;;13.05;84.92;95368.28;10396551;28;2135;-78
2021/08/26 03:27:47;;;;;;;;;;;14.10;99.90;;;13.03;83.81;95356.97;10405582;28;2246;-77
2021/08/26 03:32:50;;;;;;;;;;;14.10;99.90;;;13.03;84.21;95360.47;10391408;28;2127;-77
2021/08/26 03:37:53;;;;;;;;;;;14.00;99.90;;;13.04;83.33;95351.28;10391275;28;2338;-80
2021/08/26 03:42:56;;;;;;;;;;;14.00;99.90;;;13.00;83.05;95336.78;10398076;28;2143;-77
2021/08/26 03:47:59;;;;;;;;;;;14.00;99.90;;;12.94;83.46;95346.88;10392558;28;2135;-79
2021/08/26 03:53:02;;;;;;;;;;;14.00;99.90;;;12.85;83.80;95348.69;10395355;28;2060;-79
2021/08/26 03:58:04;;;;;;;;;;;14.00;99.90;;;12.85;83.47;95339.75;10395767;28;2157;-77
2021/08/26 04:03:07;;;;;;;;;;;13.90;99.90;;;12.81;84.06;95346.88;10398053;28;1913;-79
2021/08/26 04:08:10;;;;;;;;;;;13.90;99.90;;;12.77;84.01;95337.75;10398685;28;2092;-79
2021/08/26 04:13:13;;;;;;;;;;;13.80;99.90;;;12.76;85.06;95350.44;10402980;28;2459;-79
2021/08/26 04:18:16;;;;;;;;;;;13.80;99.90;;;12.64;85.71;95345.53;10403036;28;2450;-77
2021/08/26 04:23:19;;;;;;;;;;;13.80;99.90;;;12.58;86.53;95359.38;10399834;28;2094;-80
2021/08/26 04:28:21;;;;;;;;;;;13.70;99.90;;;12.51;87.29;95356.28;10400899;28;2197;-78
2021/08/26 04:33:24;;;;;;;;;;;13.60;99.90;;;12.44;87.93;95353.97;10410109;28;2163;-76
2021/08/26 04:38:32;;;;;;;;;;;13.60;99.90;;;12.35;88.33;95337.69;10401308;28;2064;-77
2021/08/26 04:43:35;;;;;;;;;;;13.50;99.90;;;12.32;89.19;95335.56;10402513;28;2194;-78
2021/08/26 04:48:38;;;;;;;;;;;13.40;99.90;;;12.34;89.99;95325.31;10401229;28;2186;-80
2021/08/26 04:53:41;;;;;;;;;;;13.40;99.90;;;12.42;89.49;95335.41;10404322;28;2013;-79
2021/08/26 04:58:44;;;;;;;;;;;13.50;99.90;;;12.59;88.63;95339.41;10403394;28;2168;-78
2021/08/26 05:03:47;;;;;;;;;;;13.50;99.90;;;12.83;87.17;95341.97;10431866;28;2115;-80
2021/08/26 05:08:49;;;;;;;;;;;13.60;99.90;;;12.94;86.41;95340.69;10444869;28;2273;-79
2021/08/26 05:13:52;;;;;;;;;;;13.80;99.90;;;12.97;86.44;95327.38;10426728;28;2166;-79
2021/08/26 05:18:55;;;;;;;;;;;13.90;99.90;;;13.06;86.11;95326.69;10408174;28;2167;-80
2021/08/26 05:23:58;;;;;;;;;;;14.00;99.90;;;13.15;86.44;95325.69;10394403;28;2083;-77
2021/08/26 05:29:01;;;;;;;;;;;14.10;99.90;;;13.41;84.17;95327.91;10394932;28;2127;-78
2021/08/26 05:34:04;;;;;;;;;;;14.20;99.90;;;13.50;83.75;95331.50;10393333;28;2213;-77
2021/08/26 05:39:07;;;;;;;;;;;14.30;99.90;;;13.62;83.46;95339.88;10395013;28;3331;-78
2021/08/26 05:44:10;;;;;;;;;;;14.40;99.90;;;13.70;83.16;95347.25;10394990;28;2397;-77
2021/08/26 05:49:13;;;;;;;;;;;14.50;99.90;;;13.84;83.03;95341.03;10396856;28;2209;-78
2021/08/26 05:54:15;;;;;;;;;;;14.60;99.90;;;13.96;82.03;95354.81;10388874;28;2397;-79
2021/08/26 05:59:18;;;;;;;;;;;14.80;99.90;;;14.11;81.20;95348.25;10392398;28;2064;-78
2021/08/26 06:04:21;;;;;;;;;;;14.90;99.90;;;14.25;80.47;95333.59;10398730;28;2059;-76
2021/08/26 06:09:24;;;;;;;;;;;15.00;99.90;;;14.59;78.85;95334.94;10401948;28;2412;-80
2021/08/26 06:14:27;;;;;;;;;;;15.30;99.90;;;14.94;76.63;95327.78;10408921;28;2127;-80
2021/08/26 06:19:29;;;;;;;;;;;15.50;99.90;;;15.02;76.71;95346.00;10413189;28;2231;-80
2021/08/26 06:24:32;;;;;;;;;;;15.70;99.90;;;15.31;74.71;95334.63;10408292;28;2235;-79
2021/08/26 06:29:35;;;;;;;;;;;16.00;99.90;;;15.34;74.60;95335.91;10411064;28;2171;-79
2021/08/26 06:34:38;;;;;;;;;;;16.10;99.90;;;15.45;73.98;95334.50;10394884;28;2092;-80
2021/08/26 06:39:41;;;;;;;;;;;16.20;99.90;;;15.13;74.83;95352.69;10402278;28;2092;-79
2021/08/26 06:44:43;;;;;;;;;;;16.10;99.90;;;15.31;74.91;95339.25;10394864;28;2123;-78
2021/08/26 06:49:46;;;;;;;;;;;16.10;99.90;;;15.18;75.73;95345.56;10400723;28;2163;-79
2021/08/26 06:54:49;;;;;;;;;;;16.10;99.90;;;15.58;73.93;95338.97;10393251;28;1989;-77
2021/08/26 06:59:52;;;;;;;;;;;16.10;99.90;;;15.76;73.57;95334.44;10395819;28;2139;-78
2021/08/26 07:04:55;;;;;;;;;;;16.40;99.90;;;15.79;71.85;95333.00;10404819;28;2107;-79
2021/08/26 07:09:57;;;;;;;;;;;16.60;99.90;;;16.03;71.11;95332.53;10393983;28;1999;-79
2021/08/26 07:15:00;;;;;;;;;;;16.70;99.90;;;16.13;71.22;95333.03;10387967;28;2433;-78
2021/08/26 07:20:03;;;;;;;;;;;16.80;99.90;;;16.38;68.55;95327.91;10396411;28;2183;-78
2021/08/26 07:25:06;;;;;;;;;;;17.00;99.90;;;16.49;68.22;95323.75;10393063;28;2083;-78
2021/08/26 07:30:08;;;;;;;;;;;17.20;99.90;;;16.61;67.55;95326.59;10392700;28;2175;-78
2021/08/26 07:35:11;;;;;;;;;;;17.30;99.90;;;16.32;67.27;95331.91;10392801;28;2113;-78
2021/08/26 07:40:14;;;;;;;;;;;17.20;99.90;;;16.51;66.99;95320.72;10384945;28;2187;-78
2021/08/26 07:45:17;;;;;;;;;;;17.20;99.90;;;16.42;67.80;95312.59;10391075;28;2108;-77
2021/08/26 07:50:21;;;;;;;;;;;17.30;99.90;;;16.41;66.46;95316.41;10394236;28;2108;-77
2021/08/26 07:55:23;;;;;;;;;;;17.30;99.90;;;16.57;67.36;95314.78;10401901;28;2171;-77
2021/08/26 08:00:26;;;;;;;;;;;17.30;99.90;;;16.75;70.05;95310.94;10402216;28;2181;-78
2021/08/26 08:05:29;;;;;;;;;;;17.50;99.90;;;16.06;74.92;95316.44;10397029;28;2109;-78
2021/08/26 08:10:33;;;;;;;;;;;17.20;99.90;;;15.83;76.85;95320.41;10400905;28;2116;-78
2021/08/26 08:15:36;;;;;;;;;;;16.90;99.90;;;15.90;78.72;95318.84;10401285;28;2016;-78
2021/08/26 08:20:39;;;;;;;;;;;16.70;99.90;;;15.95;79.79;95334.13;10399047;28;2172;-78
2021/08/26 08:25:42;;;;;;;;;;;16.70;99.90;;;15.63;80.47;95341.56;10399714;28;2162;-77
2021/08/26 08:30:45;;;;;;;;;;;16.60;99.90;;;15.46;83.20;95346.94;10395618;28;2123;-79
2021/08/26 08:35:51;;;;;;;;;;;16.30;99.90;;;15.51;83.44;95344.06;10412884;28;2170;-77
2021/08/26 08:40:53;;;;;;;;;;;16.30;99.90;;;15.50;82.53;95347.91;10395573;28;2190;-78
2021/08/26 08:45:56;;;;;;;;;;;16.30;99.90;;;15.42;82.60;95356.81;10396888;28;2225;-78
2021/08/26 08:50:59;;;;;;;;;;;16.30;99.90;;;15.69;80.00;95350.34;10398508;28;2111;-78
2021/08/26 08:56:02;;;;;;;;;;;16.40;99.90;;;15.93;78.29;95355.34;10395849;28;2029;-78
2021/08/26 09:01:05;;;;;;;;;;;16.50;99.90;;;16.15;74.82;95330.78;10392051;28;1913;-78
2021/08/26 09:06:09;;;;;;;;;;;16.80;99.90;;;16.70;73.77;95340.97;10406794;28;2033;-78
2021/08/26 09:11:12;;;;;;;;;;;17.00;99.90;;;16.52;74.04;95323.09;10406193;28;1965;-79
2021/08/26 09:16:14;;;;;;;;;;;17.20;99.90;;;16.64;75.35;95330.56;10410579;28;2106;-79
2021/08/26 09:21:17;;;;;;;;;;;17.20;99.90;;;16.40;81.62;95331.88;10391630;28;1959;-78
2021/08/26 09:26:20;;;;;;;;;;;17.10;99.90;;;16.02;82.12;95330.94;10398872;28;2081;-76
2021/08/26 09:31:23;;;;;;;;;;;17.00;99.90;;;15.71;80.57;95325.66;10397947;28;2127;-79
2021/08/26 09:36:26;;;;;;;;;;;16.70;99.90;;;15.59;80.05;95337.09;10398591;28;2048;-79
2021/08/26 09:41:29;;;;;;;;;;;16.50;99.90;;;15.81;80.39;95342.41;10406937;28;1913;-79
2021/08/26 09:46:32;;;;;;;;;;;16.50;99.90;;;15.89;84.30;95327.25;10401823;28;1989;-78
2021/08/26 09:51:36;;;;;;;;;;;16.50;99.90;;;15.73;83.87;95335.06;10395328;28;1914;-77
2021/08/26 09:56:39;;;;;;;;;;;16.50;99.90;;;15.60;84.94;95325.94;10396387;28;2060;-80
2021/08/26 10:01:42;;;;;;;;;;;16.50;99.90;;;15.71;83.69;95333.78;10393436;28;1881;-78
2021/08/26 10:06:45;;;;;;;;;;;16.50;99.90;;;15.65;86.74;95333.94;10398792;28;1853;-77
2021/08/26 10:11:48;;;;;;;;;;;16.50;99.90;;;15.79;85.83;95338.44;10396384;28;2097;-78
2021/08/26 10:16:51;;;;;;;;;;;16.50;99.90;;;15.58;87.94;95338.97;10394979;28;2193;-77
2021/08/26 10:21:54;;;;;;;;;;;16.50;99.90;;;15.28;87.93;95329.03;10402150;28;1963;-79
2021/08/26 10:26:56;;;;;;;;;;;16.20;99.90;;;15.54;90.31;95321.78;10394235;28;2034;-77
2021/08/26 10:31:59;;;;;;;;;;;16.20;99.90;;;15.41;86.39;95322.72;10397373;28;1906;-78
2021/08/26 10:37:02;;;;;;;;;;;16.20;99.90;;;15.27;86.60;95336.38;10404000;28;2173;-79
2021/08/26 10:42:05;;;;;;;;;;;16.10;99.90;;;14.83;86.05;95308.34;10412608;28;2008;-77
2021/08/26 10:47:08;;;;;;;;;;;15.90;99.90;;;15.13;86.79;95322.94;10399676;28;2255;-78
2021/08/26 10:52:11;;;;;;;;;;;15.90;99.90;;;15.44;83.71;95316.66;10404378;28;1995;-78
2021/08/26 10:57:14;;;;;;;;;;;16.10;99.90;;;15.31;82.95;95317.56;10402958;28;1853;-78
2021/08/26 11:02:16;;;;;;;;;;;16.10;99.90;;;15.43;86.67;95309.63;10400132;28;2193;-77
2021/08/26 11:07:19;;;;;;;;;;;16.10;99.90;;;14.93;86.23;95320.78;10406439;28;2104;-78
2021/08/26 11:12:23;;;;;;;;;;;16.00;99.90;;;14.90;86.23;95320.63;10406125;28;1998;-79
2021/08/26 11:17:26;;;;;;;;;;;15.80;99.90;;;14.65;83.78;95308.56;10409816;28;3312;-79
2021/08/26 11:22:29;;;;;;;;;;;15.60;99.90;;;15.17;81.96;95306.88;10410530;28;2719;-79
2021/08/26 11:27:32;;;;;;;;;;;15.70;99.90;;;15.21;80.24;95307.03;10405842;28;2301;-79
2021/08/26 11:32:35;;;;;;;;;;;16.00;99.90;;;14.99;81.11;95316.81;10407841;28;2174;-79
2021/08/26 11:37:38;;;;;;;;;;;15.90;99.90;;;14.90;82.98;95310.59;10401994;28;2300;-78
2021/08/26 11:42:41;;;;;;;;;;;15.80;99.90;;;14.94;82.17;95324.28;10420102;28;2332;-77
2021/08/26 11:47:44;;;;;;;;;;;15.80;99.90;;;14.63;81.77;95327.00;10404919;28;2119;-77
2021/08/26 11:52:47;;;;;;;;;;;15.60;99.90;;;14.40;84.96;95321.59;10397398;28;2401;-79
2021/08/26 11:58:04;;;;;;;;;;;15.40;99.90;;;14.00;88.92;95331.47;10417872;28;2226;-78
2021/08/26 12:03:07;;;;;;;;;;;15.00;99.90;;;13.83;92.65;95334.03;10406528;28;2128;-79
2021/08/26 12:08:10;;;;;;;;;;;14.90;99.90;;;13.40;99.71;95342.50;10434313;28;2163;-79
2021/08/26 12:13:13;;;;;;;;;;;14.50;99.90;;;13.16;100.00;95348.06;10425668;28;2146;-76
2021/08/26 12:18:16;;;;;;;;;;;14.30;99.90;;;13.18;100.00;95352.09;10400857;28;2143;-78
2021/08/26 12:23:19;;;;;;;;;;;14.10;99.90;;;12.96;100.00;95346.56;10404388;28;2197;-77
2021/08/26 12:28:22;;;;;;;;;;;14.00;99.90;;;12.90;100.00;95345.06;10396063;28;2160;-79
2021/08/26 12:33:24;;;;;;;;;;;13.90;99.90;;;12.98;100.00;95344.41;10395959;28;2005;-78
2021/08/26 12:38:27;;;;;;;;;;;13.90;99.90;;;12.93;100.00;95353.38;10397050;28;2107;-79
2021/08/26 12:43:30;;;;;;;;;;;13.90;99.90;;;12.77;100.00;95341.25;10399857;28;2021;-77
2021/08/26 12:48:33;;;;;;;;;;;13.70;99.90;;;12.65;100.00;95330.13;10396459;28;2095;-78
2021/08/26 12:53:35;;;;;;;;;;;13.60;99.90;;;12.74;100.00;95331.06;10393436;28;2501;-78
2021/08/26 12:58:38;;;;;;;;;;;13.60;99.90;;;13.02;100.00;95331.09;10398712;28;2119;-76
2021/08/26 13:03:41;;;;;;;;;;;13.70;99.90;;;13.29;100.00;95323.00;10400076;28;2183;-76
2021/08/26 13:08:44;;;;;;;;;;;14.00;99.90;;;13.60;100.00;95330.47;10401266;28;2080;-77
2021/08/26 13:13:47;;;;;;;;;;;14.20;99.90;;;14.07;100.00;95318.34;10399187;28;1964;-79
2021/08/26 13:18:50;;;;;;;;;;;14.60;99.90;;;13.98;99.90;95325.56;10397797;28;2004;-78
2021/08/26 13:23:53;;;;;;;;;;;14.80;99.90;;;13.71;100.00;95329.94;10394546;28;1905;-78
2021/08/26 13:28:55;;;;;;;;;;;14.60;99.90;;;13.55;100.00;95330.56;10391179;28;2158;-78
2021/08/26 13:33:58;;;;;;;;;;;14.60;99.90;;;14.05;100.00;95332.13;10392303;28;2215;-78
2021/08/26 13:39:01;;;;;;;;;;;14.70;99.90;;;14.24;100.00;95331.16;10399654;28;2106;-80
2021/08/26 13:44:04;;;;;;;;;;;14.90;99.90;;;13.99;100.00;95316.34;10394598;28;2205;-76
2021/08/26 13:49:07;;;;;;;;;;;14.80;99.90;;;14.16;98.24;95312.97;10391879;28;2574;-78
2021/08/26 13:54:09;;;;;;;;;;;14.90;99.90;;;14.82;93.73;95295.09;10393949;28;2304;-80
2021/08/26 13:59:12;;;;;;;;;;;15.20;99.90;;;15.85;88.70;95300.03;10394307;28;2542;-78
2021/08/26 14:04:15;;;;;;;;;;;16.10;99.90;;;16.38;85.30;95300.78;10391768;28;2407;-78
2021/08/26 14:09:18;;;;;;;;;;;16.60;99.90;;;15.88;85.52;95299.38;10394231;28;2647;-79
2021/08/26 14:14:21;;;;;;;;;;;16.80;99.90;;;16.56;81.29;95285.28;10403938;28;2080;-79
2021/08/26 14:19:24;;;;;;;;;;;17.00;99.90;;;16.33;78.54;95281.94;10391665;28;3520;-78
2021/08/26 14:24:26;;;;;;;;;;;17.10;99.90;;;16.16;78.97;95283.59;10417303;28;3005;-78
2021/08/26 14:29:29;;;;;;;;;;;16.90;99.90;;;15.86;82.28;95279.13;10403884;28;1943;-78
2021/08/26 14:34:32;;;;;;;;;;;16.60;99.90;;;15.89;81.77;95276.56;10401027;28;2054;-80
2021/08/26 14:39:45;;;;;;;;;;;16.60;99.90;;;15.75;81.56;95277.84;10389427;28;2230;-79
2021/08/26 14:44:48;;;;;;;;;;;16.60;99.90;;;16.03;80.69;95253.91;10386725;28;2483;-79
2021/08/26 14:49:51;;;;;;;;;;;16.70;99.90;;;16.13;77.18;95262.53;10384658;28;2053;-79
2021/08/26 14:54:54;;;;;;;;;;;16.80;99.90;;;16.14;75.68;95255.19;10387868;28;2368;-78
2021/08/26 14:59:57;;;;;;;;;;;16.80;99.90;;;16.69;72.95;95252.50;10389290;28;2050;-78
2021/08/26 15:05:00;;;;;;;;;;;17.10;99.90;;;16.82;73.60;95258.88;10397136;28;2072;-77
2021/08/26 15:10:03;;;;;;;;;;;17.40;99.90;;;16.37;74.27;95261.22;10398826;28;2025;-78
2021/08/26 15:15:06;;;;;;;;;;;17.30;99.90;;;16.04;76.04;95259.03;10392041;28;1906;-78
2021/08/26 15:20:09;;;;;;;;;;;17.10;99.90;;;15.82;76.77;95264.63;10392051;28;2108;-78
2021/08/26 15:25:11;;;;;;;;;;;16.80;99.90;;;15.65;79.04;95260.00;10395086;28;2045;-77
2021/08/26 15:30:14;;;;;;;;;;;16.60;99.90;;;15.75;79.71;95250.75;10396156;28;1785;-76
2021/08/26 15:35:17;;;;;;;;;;;16.50;99.90;;;15.90;79.03;95263.81;10390880;28;2092;-79
2021/08/26 15:40:21;;;;;;;;;;;16.60;99.90;;;15.73;80.19;95269.25;10395968;28;2046;-78
2021/08/26 15:45:24;;;;;;;;;;;16.60;99.90;;;15.66;79.81;95259.69;10394116;28;2089;-79
2021/08/26 15:50:27;;;;;;;;;;;16.50;99.90;;;15.83;79.08;95263.50;10391660;28;1998;-78
2021/08/26 15:55:33;;;;;;;;;;;16.60;99.90;;;16.22;78.04;95254.38;10390832;28;2172;-78
2021/08/26 16:00:40;;;;;;;;;;;16.80;99.90;;;16.55;76.12;95251.91;10390709;28;1754;-77
2021/08/26 16:05:43;;;;;;;;;;;17.10;99.90;;;16.30;77.34;95252.78;10388825;28;2097;-79
2021/08/26 16:10:46;;;;;;;;;;;17.10;99.90;;;16.24;77.60;95259.50;10389638;28;1918;-79
2021/08/26 16:15:49;;;;;;;;;;;17.00;99.90;;;16.08;78.52;95259.19;10398936;28;2026;-78
2021/08/26 16:21:12;;;;;;;;;;;17.00;99.90;;;15.97;78.83;95257.91;10397246;28;2073;-78
2021/08/26 16:26:15;;;;;;;;;;;17.00;99.90;;;16.06;78.88;95256.78;10398697;28;2744;-78
2021/08/26 16:31:18;;;;;;;;;;;16.90;99.90;;;15.81;78.82;95249.47;10400928;28;2829;-77
2021/08/26 16:36:21;;;;;;;;;;;16.70;99.90;;;15.98;77.55;95257.59;10400144;28;2476;-78
2021/08/26 16:41:24;;;;;;;;;;;16.80;99.90;;;15.78;79.60;95258.25;10391863;28;2021;-78
2021/08/26 16:46:26;;;;;;;;;;;16.80;99.90;;;15.75;76.75;95262.38;10399848;28;2563;-79
2021/08/26 16:51:29;;;;;;;;;;;16.70;99.90;;;15.74;75.64;95260.00;10411556;28;2036;-78
2021/08/26 16:56:32;;;;;;;;;;;16.60;99.90;;;15.46;77.03;95270.28;10402962;28;2120;-77
2021/08/26 17:01:35;;;;;;;;;;;16.50;99.90;;;15.56;75.52;95262.66;10397870;28;2487;-78
2021/08/26 17:06:38;;;;;;;;;;;16.50;99.90;;;15.56;75.58;95261.84;10402250;28;2108;-78
2021/08/26 17:11:41;;;;;;;;;;;16.50;99.90;;;15.56;75.18;95259.16;10397538;28;1914;-78
2021/08/26 17:16:44;;;;;;;;;;;16.40;99.90;;;15.45;73.45;95261.34;10391743;28;2084;-78
2021/08/26 17:21:48;;;;;;;;;;;16.40;99.90;;;15.24;75.06;95261.16;10394239;28;2044;-77
2021/08/26 17:26:50;;;;;;;;;;;16.20;99.90;;;15.09;76.02;95267.84;10401686;28;2037;-78
2021/08/26 17:31:53;;;;;;;;;;;16.10;99.90;;;14.86;76.88;95274.44;10397032;28;1932;-78
2021/08/26 17:36:56;;;;;;;;;;;16.00;99.90;;;14.63;77.16;95264.78;10397627;28;1848;-76
2021/08/26 17:41:59;;;;;;;;;;;15.80;99.90;;;14.46;78.39;95271.72;10390862;28;2085;-78
2021/08/26 17:47:02;;;;;;;;;;;15.60;99.90;;;14.30;79.50;95267.75;10396117;28;1758;-77
2021/08/26 17:52:04;;;;;;;;;;;15.50;99.90;;;14.18;80.62;95267.50;10394743;28;2080;-79
2021/08/26 17:57:07;;;;;;;;;;;15.30;99.90;;;13.91;81.37;95268.44;10400846;28;2260;-79
2021/08/26 18:02:10;;;;;;;;;;;15.20;99.90;;;13.71;82.93;95283.22;10412420;28;2259;-78
2021/08/26 18:07:13;;;;;;;;;;;15.00;99.90;;;13.40;85.22;95275.81;10402873;28;1959;-79
2021/08/26 18:12:16;;;;;;;;;;;14.80;99.90;;;13.24;86.49;95274.56;10393284;28;2037;-78
2021/08/26 18:17:19;;;;;;;;;;;14.60;99.90;;;13.13;87.28;95282.03;10395666;28;2116;-79
2021/08/26 18:22:21;;;;;;;;;;;14.40;99.90;;;12.96;89.08;95295.31;10394323;28;2066;-79
2021/08/26 18:27:24;;;;;;;;;;;14.30;99.90;;;12.81;90.33;95285.63;10402764;28;2121;-78
2021/08/26 18:32:27;;;;;;;;;;;14.10;99.90;;;12.77;91.57;95286.50;10394330;28;2075;-79
2021/08/26 18:37:30;;;;;;;;;;;14.00;99.90;;;12.64;92.47;95291.59;10393046;28;2021;-79
2021/08/26 18:42:32;;;;;;;;;;;13.90;99.90;;;12.52;95.01;95309.34;10403014;28;2002;-77
2021/08/26 18:47:35;;;;;;;;;;;13.80;99.90;;;12.39;95.74;95311.72;10392625;28;2141;-78
2021/08/26 18:52:38;;;;;;;;;;;13.70;99.90;;;12.38;96.15;95312.81;10385048;28;2038;-78
2021/08/26 18:57:41;;;;;;;;;;;13.60;99.90;;;12.32;95.55;95319.38;10394989;28;1998;-78
2021/08/26 19:02:44;;;;;;;;;;;13.60;99.90;;;12.27;96.37;95335.63;10400182;28;1824;-78
2021/08/26 19:07:47;;;;;;;;;;;13.50;99.90;;;12.23;96.52;95340.03;10415586;28;2072;-81
2021/08/26 19:12:50;;;;;;;;;;;13.50;99.90;;;12.14;97.96;95342.56;10440181;28;2029;-79
2021/08/26 19:17:53;;;;;;;;;;;13.40;99.90;;;12.07;98.28;95346.75;10426903;28;1770;-79
2021/08/26 19:23:13;;;;;;;;;;;13.30;99.90;;;11.95;98.74;95368.72;10399454;28;2015;-79
2021/08/26 19:28:16;;;;;;;;;;;13.20;99.90;;;11.99;98.16;95358.19;10398515;28;2045;-79
2021/08/26 19:33:19;;;;;;;;;;;13.20;99.90;;;12.01;98.41;95359.50;10394393;28;2002;-78
2021/08/26 19:38:22;;;;;;;;;;;13.20;99.90;;;11.94;98.85;95369.03;10397976;28;2043;-81
2021/08/26 19:43:24;;;;;;;;;;;13.10;99.90;;;11.88;99.12;95384.47;10395314;28;1746;-77
2021/08/26 19:48:27;;;;;;;;;;;13.10;99.90;;;11.91;99.69;95383.91;10394303;28;2026;-81
2021/08/26 19:53:30;;;;;;;;;;;13.00;99.90;;;11.80;99.24;95372.44;10400541;28;2072;-79
2021/08/26 19:58:33;;;;;;;;;;;13.00;99.90;;;11.71;99.53;95378.75;10403265;28;1966;-77
2021/08/26 20:03:36;;;;;;;;;;;13.00;99.90;;;11.65;99.28;95383.41;10401452;28;1910;-79
2021/08/26 20:08:38;;;;;;;;;;;12.90;99.90;;;11.63;99.56;95388.25;10401964;28;2017;-79
2021/08/26 20:13:41;;;;;;;;;;;12.90;99.90;;;11.61;99.85;95385.06;10402951;28;1975;-77
2021/08/26 20:18:44;;;;;;;;;;;12.80;99.90;;;11.60;99.46;95394.25;10405059;28;1962;-77
2021/08/26 20:23:47;;;;;;;;;;;12.80;99.90;;;11.58;100.00;95391.84;10399364;28;2017;-77
2021/08/26 20:28:49;;;;;;;;;;;12.70;99.90;;;11.69;98.28;95397.88;10404617;28;1887;-79
2021/08/26 20:33:52;;;;;;;;;;;12.80;99.90;;;11.89;98.31;95391.44;10397575;28;1993;-78
2021/08/26 20:38:55;;;;;;;;;;;12.80;99.90;;;12.07;96.49;95395.25;10400801;28;2057;-79
2021/08/26 20:43:59;;;;;;;;;;;13.00;99.90;;;12.13;94.96;95391.38;10401117;28;1856;-78
2021/08/26 20:49:02;;;;;;;;;;;13.10;99.90;;;12.12;95.02;95397.88;10414042;28;2069;-77
2021/08/26 20:54:04;;;;;;;;;;;13.20;99.90;;;12.21;94.07;95404.19;10409368;28;1997;-79
2021/08/26 20:59:07;;;;;;;;;;;13.20;99.90;;;12.26;93.17;95403.31;10402984;28;2025;-79
2021/08/26 21:04:10;;;;;;;;;;;13.30;99.90;;;12.30;92.73;95398.94;10404551;28;1932;-78
2021/08/26 21:09:13;;;;;;;;;;;13.30;99.90;;;12.33;92.76;95401.84;10405882;28;2049;-78
2021/08/26 21:14:16;;;;;;;;;;;13.30;99.90;;;12.39;91.52;95400.66;10400460;28;1906;-79
2021/08/26 21:19:18;;;;;;;;;;;13.40;99.90;;;12.33;92.34;95409.13;10405587;28;2004;-79
2021/08/26 21:24:21;;;;;;;;;;;13.40;99.90;;;12.29;92.11;95405.44;10405393;28;2029;-81
2021/08/26 21:29:24;;;;;;;;;;;13.40;99.90;;;12.26;91.42;95404.09;10403576;28;2054;-79
2021/08/26 21:34:27;;;;;;;;;;;13.30;99.90;;;12.17;91.60;95406.69;10397527;28;2137;-78
2021/08/26 21:39:30;;;;;;;;;;;13.30;99.90;;;12.12;92.08;95417.53;10403228;28;2069;-78
2021/08/26 21:44:32;;;;;;;;;;;13.30;99.90;;;12.17;91.63;95420.16;10395378;28;2046;-77
2021/08/26 21:49:35;;;;;;;;;;;13.20;99.90;;;12.15;91.73;95418.81;10397700;28;2102;-78
2021/08/26 21:54:38;;;;;;;;;;;13.20;99.90;;;12.14;91.85;95420.72;10393356;28;2085;-78
2021/08/26 21:59:41;;;;;;;;;;;13.20;99.90;;;12.21;90.86;95425.75;10402419;28;2077;-78
2021/08/26 22:04:44;;;;;;;;;;;13.20;99.90;;;12.29;91.18;95427.78;10398350;28;2071;-79
2021/08/26 22:09:46;;;;;;;;;;;13.30;99.90;;;12.33;90.51;95417.22;10394684;28;2029;-77
2021/08/26 22:14:49;;;;;;;;;;;13.30;99.90;;;12.34;90.58;95425.03;10391590;28;1979;-80
2021/08/26 22:19:52;;;;;;;;;;;13.40;99.90;;;12.32;89.86;95415.63;10391039;28;2121;-82
2021/08/26 22:24:55;;;;;;;;;;;13.40;99.90;;;12.33;89.91;95414.50;10396048;28;2119;-80
2021/08/26 22:29:58;;;;;;;;;;;13.40;99.90;;;12.38;90.00;95412.53;10402570;28;1941;-78
2021/08/26 22:35:00;;;;;;;;;;;13.40;99.90;;;12.30;89.95;95401.66;10408564;28;2023;-81
2021/08/26 22:40:03;;;;;;;;;;;13.40;99.90;;;12.08;91.09;95407.59;10393392;28;1814;-79
2021/08/26 22:45:06;;;;;;;;;;;13.30;99.90;;;11.85;92.64;95402.00;10399774;28;2158;-79
2021/08/26 22:50:15;;;;;;;;;;;13.10;99.90;;;11.76;92.89;95409.09;10408094;28;1926;-77
2021/08/26 22:55:18;;;;;;;;;;;13.00;99.90;;;11.74;93.33;95403.19;10392012;28;1906;-78
2021/08/26 23:00:21;;;;;;;;;;;12.90;99.90;;;11.50;94.88;95400.53;10396200;28;1980;-79
2021/08/26 23:05:24;;;;;;;;;;;12.80;99.90;;;11.45;95.08;95397.94;10411893;28;2122;-79
2021/08/26 23:10:26;;;;;;;;;;;12.70;99.90;;;11.39;96.40;95404.47;10398697;28;1939;-79